Time;durP1;ratioP1;P1;durP2;ratioP2;P2;SDS_P1;SDS_P2;PMS_P1;PMS_P2;Temp;Humidity;BMP_temperature;BMP_pressure;BME280_temperature;BME280_humidity;BME280_pressure;Samples;Min_cycle;Max_cycle;Signal;HPM_P1;HPM_P2
2022/10/19 00:00:50;;;;;;;13.98;9.50;;;;;;;13.49;72.51;100401.53;4456594;32;33437;-81
2022/10/19 00:03:39;;;;;;;15.48;9.30;;;;;;;13.64;72.37;100394.03;4445878;32;35040;-81
2022/10/19 00:06:29;;;;;;;13.32;9.32;;;;;;;13.78;72.15;100393.97;4447808;32;34559;-81
2022/10/19 00:09:18;;;;;;;14.75;9.27;;;;;;;13.71;72.89;100397.16;4446978;32;32937;-81
2022/10/19 00:12:04;;;;;;;13.43;9.10;;;;;;;13.76;72.54;100387.94;4445037;32;34784;-81
2022/10/19 00:14:51;;;;;;;12.93;8.57;;;;;;;13.57;73.53;100388.12;4440278;32;33990;-81
2022/10/19 00:17:37;;;;;;;13.40;8.60;;;;;;;13.55;73.43;100384.88;4447879;32;33824;-81
2022/10/19 00:20:24;;;;;;;14.70;9.30;;;;;;;13.47;74.31;100380.94;4460617;32;33291;-81
2022/10/19 00:23:14;;;;;;;16.90;11.38;;;;;;;13.19;75.79;100377.44;4457093;32;33575;-81
2022/10/19 00:26:01;;;;;;;16.67;10.55;;;;;;;12.65;79.21;100381.94;4460779;32;34100;-81
2022/10/19 00:28:48;;;;;;;16.73;11.20;;;;;;;12.21;82.50;100378.66;4442581;32;33436;-81
2022/10/19 00:31:35;;;;;;;17.75;11.05;;;;;;;12.56;81.02;100373.59;4437894;32;33479;-81
2022/10/19 00:34:23;;;;;;;18.37;11.40;;;;;;;12.19;83.67;100369.91;4443326;32;33811;-81
2022/10/19 00:37:11;;;;;;;12.85;9.35;;;;;;;12.73;80.54;100367.47;4459116;32;35101;-81
2022/10/19 00:39:58;;;;;;;16.02;9.98;;;;;;;12.91;78.38;100372.00;4448445;32;34619;-81
2022/10/19 00:42:44;;;;;;;12.73;9.25;;;;;;;12.72;79.13;100365.81;4459152;32;32472;-81
2022/10/19 00:45:30;;;;;;;13.60;9.45;;;;;;;13.01;77.83;100363.53;4460532;32;33749;-81
2022/10/19 00:48:27;;;;;;;12.73;8.80;;;;;;;12.72;79.88;100358.41;4460202;32;34176;-80
2022/10/19 00:51:13;;;;;;;13.25;8.73;;;;;;;12.78;80.02;100353.59;4438355;32;34394;-81
2022/10/19 00:54:03;;;;;;;12.30;9.00;;;;;;;12.97;78.68;100353.44;4439314;32;32909;-81
2022/10/19 00:56:51;;;;;;;12.83;9.07;;;;;;;12.90;78.59;100337.38;4444197;32;34478;-81
2022/10/19 00:59:39;;;;;;;12.33;8.87;;;;;;;12.53;80.70;100342.03;4443903;32;34107;-80
2022/10/19 01:02:25;;;;;;;12.20;8.60;;;;;;;12.75;80.40;100340.44;4444216;32;35875;-81
2022/10/19 01:05:13;;;;;;;13.20;9.32;;;;;;;12.93;79.69;100328.50;4447142;32;33349;-81
2022/10/19 01:08:00;;;;;;;13.55;8.73;;;;;;;12.18;83.60;100326.25;4444837;32;33156;-81
2022/10/19 01:10:51;;;;;;;14.48;9.20;;;;;;;12.36;82.45;100322.59;4422269;32;796368;-81
2022/10/19 01:14:01;;;;;;;13.27;9.47;;;;;;;12.44;82.22;100326.56;4446616;32;33660;-81
2022/10/19 01:17:10;;;;;;;13.57;9.43;;;;;;;12.87;80.76;100321.50;4457436;32;32983;-81
2022/10/19 01:20:20;;;;;;;12.57;9.32;;;;;;;13.03;80.06;100319.19;4457038;32;33724;-81
2022/10/19 01:23:13;;;;;;;13.45;9.18;;;;;;;12.52;82.71;100312.06;4447621;32;34958;-81
2022/10/19 01:26:11;;;;;;;14.45;9.20;;;;;;;12.13;85.88;100310.69;4456032;32;34112;-81
2022/10/19 01:29:32;;;;;;;13.38;9.57;;;;;;;12.12;86.07;100315.37;4454488;32;33515;-81
2022/10/19 01:32:21;;;;;;;14.57;8.95;;;;;;;12.56;84.17;100307.59;4456080;32;34510;-80
2022/10/19 01:35:36;;;;;;;13.60;9.23;;;;;;;12.15;86.70;100301.03;4447432;32;35066;-81
2022/10/19 01:38:34;;;;;;;12.05;8.82;;;;;;;12.76;82.78;100301.66;4455607;32;34758;-80
2022/10/19 01:41:42;;;;;;;14.20;9.53;;;;;;;12.75;81.59;100290.94;4434214;32;33107;-81
2022/10/19 01:44:48;;;;;;;12.13;8.85;;;;;;;13.23;78.74;100284.87;4445054;32;33767;-81
2022/10/19 01:47:47;;;;;;;13.53;9.40;;;;;;;13.38;77.03;100284.53;4454720;32;33762;-81
2022/10/19 01:50:40;;;;;;;13.80;9.02;;;;;;;13.44;76.62;100272.28;4438534;32;33217;-81
2022/10/19 01:53:31;;;;;;;14.25;9.98;;;;;;;13.52;76.00;100278.13;4443311;32;33377;-81
2022/10/19 01:56:23;;;;;;;14.57;9.77;;;;;;;12.79;80.17;100284.53;4442512;32;33782;-81
2022/10/19 01:59:11;;;;;;;14.73;9.90;;;;;;;13.10;79.67;100283.81;4444450;32;34088;-81
2022/10/19 02:01:57;;;;;;;13.52;9.48;;;;;;;13.00;80.56;100282.09;4445608;32;33792;-81
2022/10/19 02:04:46;;;;;;;15.82;9.98;;;;;;;13.21;79.20;100295.41;4455415;32;33399;-81
2022/10/19 02:07:32;;;;;;;13.35;9.85;;;;;;;12.75;81.19;100289.03;4446400;32;33764;-81
2022/10/19 02:10:19;;;;;;;16.62;10.48;;;;;;;13.14;79.32;100295.00;4432493;32;34099;-81
2022/10/19 02:13:07;;;;;;;16.33;10.50;;;;;;;11.62;87.65;100300.63;4446591;32;33475;-80
2022/10/19 02:15:55;;;;;;;15.60;10.40;;;;;;;11.19;92.97;100304.34;4440576;32;34017;-80
2022/10/19 02:18:45;;;;;;;13.82;10.02;;;;;;;10.83;95.10;100303.28;4444743;32;34576;-80
2022/10/19 02:21:33;;;;;;;17.30;10.48;;;;;;;10.87;95.37;100296.06;4446336;32;34628;-80
2022/10/19 02:24:19;;;;;;;17.03;10.40;;;;;;;11.53;91.92;100299.69;4446324;32;34817;-80
2022/10/19 02:27:07;;;;;;;18.73;11.12;;;;;;;10.72;97.43;100300.66;4456997;32;33589;-80
2022/10/19 02:29:55;;;;;;;17.48;10.95;;;;;;;10.94;96.88;100300.06;4446716;32;33474;-80
2022/10/19 02:32:42;;;;;;;20.10;11.65;;;;;;;11.15;95.05;100310.72;4444043;32;34063;-80
2022/10/19 02:35:29;;;;;;;16.90;10.85;;;;;;;11.56;92.74;100313.62;4442692;32;33834;-81
2022/10/19 02:38:21;;;;;;;17.65;11.02;;;;;;;11.03;95.50;100306.50;4444973;32;32834;-80
2022/10/19 02:41:14;;;;;;;18.98;11.30;;;;;;;10.78;97.34;100301.41;4446897;32;33836;-80
2022/10/19 02:44:14;;;;;;;17.00;11.63;;;;;;;11.09;96.29;100293.53;4441755;32;35133;-81
2022/10/19 02:47:21;;;;;;;17.98;10.88;;;;;;;11.33;93.82;100298.13;4440251;32;33788;-81
2022/10/19 02:50:09;;;;;;;18.67;11.85;;;;;;;11.38;93.29;100289.78;4446600;32;32496;-81
2022/10/19 02:53:01;;;;;;;15.85;11.63;;;;;;;11.48;93.44;100289.62;4448882;32;33719;-81
2022/10/19 02:55:49;;;;;;;17.03;11.77;;;;;;;11.82;92.48;100300.25;4443095;32;34075;-80
2022/10/19 02:58:36;;;;;;;17.65;12.23;;;;;;;12.26;89.28;100298.06;4445297;32;34570;-80
2022/10/19 03:01:24;;;;;;;16.65;12.30;;;;;;;11.48;94.76;100297.84;4459040;32;33533;-80
2022/10/19 03:04:10;;;;;;;17.35;12.10;;;;;;;11.31;95.86;100305.81;4448620;32;33356;-81
2022/10/19 03:06:57;;;;;;;18.15;12.73;;;;;;;11.24;96.94;100304.28;4457258;32;34142;-80
2022/10/19 03:09:44;;;;;;;19.27;13.52;;;;;;;11.53;96.32;100297.75;4458356;32;33376;-81
2022/10/19 03:12:30;;;;;;;17.17;13.38;;;;;;;11.49;96.45;100308.50;4446335;32;33372;-80
2022/10/19 03:15:18;;;;;;;21.15;14.57;;;;;;;11.60;97.47;100300.09;4457682;32;34011;-81
2022/10/19 03:18:06;;;;;;;22.80;15.52;;;;;;;11.75;96.49;100299.00;4446490;32;36196;-79
2022/10/19 03:21:08;;;;;;;23.27;14.65;;;;;;;11.79;95.86;100311.84;4449779;32;33901;-79
2022/10/19 03:23:55;;;;;;;20.62;14.73;;;;;;;11.90;95.01;100307.81;4447902;32;33594;-80
2022/10/19 03:26:42;;;;;;;21.58;15.60;;;;;;;12.04;93.99;100307.84;4449445;32;33763;-79
2022/10/19 03:29:31;;;;;;;21.10;15.25;;;;;;;12.09;93.51;100301.41;4459857;32;35129;-80
2022/10/19 03:32:17;;;;;;;22.05;15.48;;;;;;;12.17;92.09;100303.44;4444732;32;33705;-78
2022/10/19 03:35:05;;;;;;;23.83;15.18;;;;;;;12.19;91.48;100308.66;4449581;32;33393;-79
2022/10/19 03:37:52;;;;;;;21.35;15.50;;;;;;;12.15;92.56;100305.69;4461139;32;33614;-80
2022/10/19 03:40:41;;;;;;;22.37;15.23;;;;;;;11.93;93.91;100298.16;4455036;32;33944;-80
2022/10/19 03:43:30;;;;;;;21.50;14.85;;;;;;;12.23;91.92;100315.97;4453585;32;33754;-80
2022/10/19 03:46:19;;;;;;;23.30;16.90;;;;;;;12.18;91.19;100323.50;4440245;32;34387;-80
2022/10/19 03:49:10;;;;;;;22.13;15.95;;;;;;;12.50;89.25;100320.66;4447496;32;33787;-79
2022/10/19 03:51:57;;;;;;;24.05;16.40;;;;;;;11.81;92.46;100317.84;4428138;32;35043;-80
2022/10/19 03:54:49;;;;;;;23.45;15.85;;;;;;;11.68;92.45;100330.41;4446308;32;33749;-80
2022/10/19 03:57:36;;;;;;;20.75;14.90;;;;;;;11.97;91.17;100318.41;4446861;32;33217;-79
2022/10/19 04:00:24;;;;;;;23.52;14.32;;;;;;;11.66;92.46;100320.84;4446686;32;33555;-80
2022/10/19 04:03:23;;;;;;;18.65;13.88;;;;;;;11.62;92.04;100323.41;4457022;32;34753;-80
2022/10/19 04:06:12;;;;;;;20.37;13.35;;;;;;;12.22;88.46;100324.53;4441506;32;34280;-80
2022/10/19 04:09:05;;;;;;;19.35;13.35;;;;;;;11.87;90.45;100310.38;4443304;32;33125;-80
2022/10/19 04:11:53;;;;;;;20.20;13.45;;;;;;;11.89;89.94;100308.13;4445279;32;34664;-81
2022/10/19 04:14:39;;;;;;;20.08;13.15;;;;;;;12.06;89.52;100310.25;4441133;32;35029;-79
2022/10/19 04:17:42;;;;;;;18.87;12.80;;;;;;;11.58;91.44;100327.84;4445992;32;33851;-79
2022/10/19 04:20:42;;;;;;;19.10;13.15;;;;;;;11.55;91.61;100319.41;4456088;32;33306;-79
2022/10/19 04:23:34;;;;;;;18.87;13.13;;;;;;;12.21;88.13;100328.37;4458678;32;34273;-80
2022/10/19 04:26:25;;;;;;;18.65;12.90;;;;;;;11.87;89.96;100321.34;4433672;32;34149;-79
2022/10/19 04:29:14;;;;;;;18.73;13.60;;;;;;;12.18;87.87;100318.84;4457749;32;33842;-80
2022/10/19 04:32:08;;;;;;;21.08;13.57;;;;;;;12.27;87.09;100321.69;4445865;32;33278;-80
2022/10/19 04:34:54;;;;;;;19.55;13.60;;;;;;;11.99;89.91;100320.84;4456160;32;33736;-79
2022/10/19 04:37:44;;;;;;;18.25;12.57;;;;;;;11.58;93.92;100305.88;4444939;32;35191;-80
2022/10/19 04:40:36;;;;;;;20.33;13.10;;;;;;;11.95;93.06;100298.66;4441945;32;34625;-80
2022/10/19 04:43:23;;;;;;;18.37;14.38;;;;;;;11.87;91.91;100300.19;4445325;32;33302;-82
2022/10/19 04:46:15;;;;;;;20.52;14.50;;;;;;;11.68;93.15;100311.22;4448652;32;33370;-82
2022/10/19 04:49:04;;;;;;;23.48;15.27;;;;;;;11.65;92.69;100325.53;4458287;32;35163;-81
2022/10/19 04:51:58;;;;;;;19.62;13.85;;;;;;;11.87;90.96;100318.59;4456095;32;33395;-80
2022/10/19 04:54:45;;;;;;;21.17;14.40;;;;;;;12.25;89.65;100307.44;4441634;32;32685;-82
2022/10/19 04:57:35;;;;;;;21.52;14.48;;;;;;;11.48;93.53;100306.06;4458290;32;33858;-81
2022/10/19 05:00:23;;;;;;;20.25;14.77;;;;;;;10.89;97.84;100296.59;4458937;32;34079;-81
2022/10/19 05:03:19;;;;;;;22.80;15.25;;;;;;;10.82;99.68;100293.44;4460060;32;33800;-81
2022/10/19 05:06:10;;;;;;;23.80;16.17;;;;;;;10.73;100.00;100299.56;4446621;32;33322;-81
2022/10/19 05:09:03;;;;;;;22.25;16.42;;;;;;;10.47;100.00;100299.09;4442038;32;33892;-83
2022/10/19 05:11:50;;;;;;;23.02;15.48;;;;;;;10.44;100.00;100309.81;4457775;32;33607;-83
2022/10/19 05:14:37;;;;;;;22.73;15.90;;;;;;;10.49;100.00;100315.22;4439262;32;34595;-83
2022/10/19 05:17:31;;;;;;;23.60;15.90;;;;;;;10.57;100.00;100314.59;4447706;32;33471;-84
2022/10/19 05:20:22;;;;;;;20.07;15.70;;;;;;;10.56;100.00;100322.00;4432277;32;33734;-80
2022/10/19 05:23:09;;;;;;;21.62;15.77;;;;;;;10.61;100.00;100321.09;4442250;32;34929;-80
2022/10/19 05:26:05;;;;;;;22.73;15.77;;;;;;;10.97;100.00;100317.88;4444877;32;33278;-82
2022/10/19 05:28:56;;;;;;;20.63;15.80;;;;;;;10.65;100.00;100333.13;4432501;32;33219;-80
2022/10/19 05:31:44;;;;;;;22.27;15.85;;;;;;;10.93;100.00;100312.16;4446578;32;33578;-81
2022/10/19 05:34:31;;;;;;;23.17;16.85;;;;;;;10.69;100.00;100323.19;4441160;32;34195;-80
2022/10/19 05:37:20;;;;;;;24.67;17.27;;;;;;;10.76;100.00;100322.84;4450249;32;33819;-82
2022/10/19 05:40:08;;;;;;;24.63;16.87;;;;;;;10.73;100.00;100335.19;4443922;32;34296;-81
2022/10/19 05:42:56;;;;;;;23.08;16.50;;;;;;;10.92;100.00;100342.59;4441783;32;34733;-82
2022/10/19 05:45:43;;;;;;;22.98;16.55;;;;;;;11.10;100.00;100332.75;4441346;32;33766;-81
2022/10/19 05:48:33;;;;;;;21.50;16.70;;;;;;;11.03;100.00;100335.87;4447787;32;33675;-79
2022/10/19 05:51:22;;;;;;;22.05;15.82;;;;;;;10.88;100.00;100338.84;4446485;32;32368;-79
2022/10/19 05:54:18;;;;;;;20.60;15.88;;;;;;;10.91;100.00;100349.22;4443313;32;34861;-81
2022/10/19 05:57:10;;;;;;;23.87;16.60;;;;;;;11.25;100.00;100340.75;4443199;32;34713;-81
2022/10/19 05:59:57;;;;;;;21.83;15.73;;;;;;;10.98;100.00;100352.37;4443170;32;33756;-81
2022/10/19 06:02:52;;;;;;;21.60;16.62;;;;;;;10.95;100.00;100350.25;4446778;32;33276;-80
2022/10/19 06:05:45;;;;;;;20.35;15.70;;;;;;;11.24;100.00;100344.59;4440664;32;34442;-80
2022/10/19 06:08:35;;;;;;;19.90;15.20;;;;;;;11.05;100.00;100354.78;4448095;32;34164;-80
2022/10/19 06:11:26;;;;;;;20.75;15.80;;;;;;;11.39;100.00;100358.09;4440009;32;34631;-80
2022/10/19 06:14:15;;;;;;;19.30;14.45;;;;;;;11.62;100.00;100355.53;4443947;32;34176;-81
2022/10/19 06:17:03;;;;;;;20.73;14.87;;;;;;;12.10;100.00;100358.81;4455463;32;34726;-80
2022/10/19 06:19:50;;;;;;;21.65;15.25;;;;;;;11.92;100.00;100367.91;4458308;32;34500;-82
2022/10/19 06:22:37;;;;;;;20.30;15.07;;;;;;;12.35;100.00;100367.66;4446129;32;34645;-81
2022/10/19 06:25:31;;;;;;;20.02;14.85;;;;;;;12.03;100.00;100360.31;4444431;32;35953;-81
2022/10/19 06:28:28;;;;;;;19.60;14.45;;;;;;;11.96;100.00;100366.22;4436910;32;33869;-81
2022/10/19 06:31:17;;;;;;;19.50;14.57;;;;;;;12.46;100.00;100369.09;4444494;32;34036;-81
2022/10/19 06:34:04;;;;;;;18.87;13.93;;;;;;;12.18;100.00;100381.19;4445074;32;34599;-80
2022/10/19 06:36:55;;;;;;;18.87;13.40;;;;;;;12.63;100.00;100384.16;4457504;32;34301;-80
2022/10/19 06:39:41;;;;;;;18.73;14.15;;;;;;;12.62;100.00;100379.78;4443984;32;33812;-80
2022/10/19 06:42:28;;;;;;;18.67;13.25;;;;;;;12.52;100.00;100373.38;4453639;32;34225;-81
2022/10/19 06:45:22;;;;;;;17.58;13.80;;;;;;;12.39;100.00;100385.19;4462787;32;34568;-80
2022/10/19 06:48:14;;;;;;;17.75;12.88;;;;;;;12.23;100.00;100372.84;4447385;32;32401;-80
2022/10/19 06:51:04;;;;;;;17.42;13.15;;;;;;;12.14;100.00;100383.72;4448257;32;33271;-79
2022/10/19 06:53:52;;;;;;;18.80;13.40;;;;;;;12.67;100.00;100379.69;4450456;32;34796;-81
2022/10/19 06:56:44;;;;;;;16.65;12.80;;;;;;;12.48;100.00;100396.28;4452894;32;33820;-80
2022/10/19 06:59:32;;;;;;;16.65;12.68;;;;;;;12.76;100.00;100400.66;4453192;32;33246;-81
2022/10/19 07:02:19;;;;;;;16.65;12.80;;;;;;;12.87;100.00;100412.25;4450342;32;34883;-81
2022/10/19 07:05:08;;;;;;;18.52;12.37;;;;;;;13.50;100.00;100410.59;4449618;32;35912;-82
2022/10/19 07:07:56;;;;;;;15.38;12.13;;;;;;;13.31;100.00;100419.00;4436848;32;33951;-82
2022/10/19 07:10:52;;;;;;;15.20;11.85;;;;;;;12.81;100.00;100413.50;4443133;32;34284;-83
2022/10/19 07:13:39;;;;;;;16.57;11.10;;;;;;;13.04;100.00;100414.38;4437568;32;33354;-81
2022/10/19 07:16:25;;;;;;;16.80;11.73;;;;;;;12.99;100.00;100415.28;4451242;32;33682;-82
2022/10/19 07:19:12;;;;;;;18.45;12.02;;;;;;;13.16;100.00;100414.66;4430618;32;32159;-82
2022/10/19 07:22:00;;;;;;;15.77;11.77;;;;;;;13.17;100.00;100420.97;4452255;32;33360;-81
2022/10/19 07:24:46;;;;;;;15.80;11.20;;;;;;;13.59;100.00;100421.69;4439070;32;33610;-81
2022/10/19 07:27:39;;;;;;;16.17;12.02;;;;;;;13.54;100.00;100424.56;4444046;32;33414;-82
2022/10/19 07:33:19;;;;;;;15.85;12.00;;;;;;;13.80;100.00;100422.78;4450134;32;33224;-80
2022/10/19 07:36:09;;;;;;;17.25;12.15;;;;;;;13.85;100.00;100424.63;4447424;32;33693;-81
2022/10/19 07:38:57;;;;;;;15.73;11.27;;;;;;;14.05;100.00;100435.12;4441130;32;34935;-82
2022/10/19 07:41:47;;;;;;;15.23;11.12;;;;;;;14.16;100.00;100430.16;4439008;32;33244;-81
2022/10/19 07:44:35;;;;;;;14.00;9.95;;;;;;;13.82;100.00;100430.75;4430118;32;32753;-80
2022/10/19 07:47:22;;;;;;;15.05;10.30;;;;;;;14.10;100.00;100436.94;4448248;32;33713;-81
2022/10/19 07:50:11;;;;;;;13.02;9.27;;;;;;;13.93;100.00;100435.69;4437311;32;34707;-83
2022/10/19 07:52:58;;;;;;;12.13;8.70;;;;;;;14.32;100.00;100445.19;4441402;32;33880;-80
2022/10/19 07:55:44;;;;;;;12.57;8.40;;;;;;;14.18;100.00;100449.97;4448379;32;31915;-81
2022/10/19 07:58:35;;;;;;;12.68;7.82;;;;;;;13.97;100.00;100437.81;4437652;32;33309;-81
2022/10/19 08:01:27;;;;;;;11.85;7.93;;;;;;;14.17;100.00;100434.53;4432523;32;33728;-80
2022/10/19 08:04:16;;;;;;;11.37;7.97;;;;;;;14.28;100.00;100432.34;4439969;32;33911;-81
2022/10/19 08:07:24;;;;;;;12.30;7.20;;;;;;;14.45;99.30;100434.38;4441387;32;31999;-81
2022/10/19 08:10:14;;;;;;;10.50;6.87;;;;;;;14.75;98.59;100424.47;4438123;32;33279;-81
2022/10/19 08:13:00;;;;;;;11.77;7.45;;;;;;;15.23;95.49;100429.94;4451499;32;32645;-80
2022/10/19 08:15:49;;;;;;;10.05;7.10;;;;;;;15.10;96.17;100419.84;4426782;32;33256;-80
2022/10/19 08:18:35;;;;;;;9.47;6.43;;;;;;;15.58;93.54;100424.41;4429399;32;32644;-81
2022/10/19 08:21:25;;;;;;;10.90;5.90;;;;;;;15.55;93.71;100435.31;4428172;32;33776;-82
2022/10/19 08:24:18;;;;;;;9.27;5.90;;;;;;;15.79;92.46;100432.88;4427313;32;33803;-81
2022/10/19 08:27:10;;;;;;;8.43;5.50;;;;;;;15.90;91.99;100425.06;4430013;32;33094;-81
2022/10/19 08:30:02;;;;;;;8.30;5.30;;;;;;;15.76;92.60;100428.00;4429870;32;32607;-81
2022/10/19 08:32:49;;;;;;;8.33;5.33;;;;;;;16.16;90.31;100439.63;4424174;32;34717;-82
2022/10/19 08:35:35;;;;;;;8.93;5.68;;;;;;;16.69;87.64;100434.75;4429751;32;32393;-80
2022/10/19 08:38:22;;;;;;;6.82;5.10;;;;;;;16.18;89.28;100428.25;4431046;32;32956;-81
2022/10/19 08:41:17;;;;;;;8.03;5.03;;;;;;;16.68;86.95;100435.91;4430202;32;31926;-80
2022/10/19 08:44:32;;;;;;;6.72;4.82;;;;;;;16.64;86.75;100440.47;4431369;32;33454;-80
2022/10/19 08:47:34;;;;;;;8.80;4.93;;;;;;;16.29;87.02;100428.72;4429475;32;34168;-81
2022/10/19 08:50:29;;;;;;;8.10;4.53;;;;;;;16.54;87.00;100427.81;4428133;32;33789;-81
2022/10/19 08:56:30;;;;;;;7.17;4.20;;;;;;;17.31;81.67;100425.78;4429291;32;33468;-81
2022/10/19 08:59:58;;;;;;;5.90;4.07;;;;;;;17.92;80.02;100427.25;4424568;32;32653;-82
2022/10/19 09:03:01;;;;;;;6.43;3.80;;;;;;;17.90;78.13;100427.59;4428785;32;33338;-82
2022/10/19 09:05:53;;;;;;;6.35;3.90;;;;;;;17.59;79.77;100425.25;4419551;32;32675;-81
2022/10/19 09:08:41;;;;;;;5.47;3.62;;;;;;;18.20;76.65;100421.91;4428814;32;34446;-82
2022/10/19 09:11:35;;;;;;;5.55;3.42;;;;;;;18.07;77.78;100428.56;4434184;32;34071;-81
2022/10/19 09:14:37;;;;;;;7.43;3.85;;;;;;;17.69;76.33;100433.13;4435247;32;33264;-82
2022/10/19 09:17:31;;;;;;;5.80;3.47;;;;;;;17.86;74.29;100425.84;4437077;32;32876;-82
2022/10/19 09:20:22;;;;;;;6.97;3.60;;;;;;;18.10;73.58;100434.25;4440386;32;33751;-81
2022/10/19 09:23:21;;;;;;;5.50;3.60;;;;;;;18.31;71.47;100428.62;4440446;32;33069;-82
2022/10/19 09:26:17;;;;;;;5.97;3.53;;;;;;;18.73;70.36;100428.44;4447300;32;32847;-81
2022/10/19 09:29:28;;;;;;;5.87;3.60;;;;;;;18.78;71.20;100430.19;4439465;32;32932;-82
2022/10/19 09:35:31;;;;;;;6.10;3.70;;;;;;;18.88;66.06;100432.50;4439069;32;33596;-82
2022/10/19 09:38:23;;;;;;;7.15;4.07;;;;;;;18.58;70.15;100429.91;4441501;32;33422;-81
2022/10/19 09:41:16;;;;;;;6.03;3.20;;;;;;;18.78;67.27;100428.22;4440919;32;32862;-82
2022/10/19 09:44:04;;;;;;;12.07;4.65;;;;;;;18.68;68.71;100427.88;4443203;32;32312;-81
2022/10/19 09:47:01;;;;;;;4.68;3.00;;;;;;;19.46;65.70;100440.63;4431940;32;35080;-80
2022/10/19 09:49:49;;;;;;;5.62;3.08;;;;;;;18.87;66.94;100444.78;4442197;32;33842;-81
2022/10/19 09:52:37;;;;;;;6.50;3.08;;;;;;;18.46;68.67;100431.88;4437529;32;34171;-81
2022/10/19 09:55:31;;;;;;;4.67;2.70;;;;;;;18.32;69.25;100429.44;4446656;32;33713;-83
2022/10/19 09:58:27;;;;;;;5.50;2.90;;;;;;;17.60;71.54;100443.47;4428788;32;33672;-81
2022/10/19 10:01:33;;;;;;;5.63;3.47;;;;;;;18.28;69.43;100436.81;4435666;32;33583;-81
2022/10/19 10:04:29;;;;;;;3.25;1.98;;;;;;;18.70;67.22;100419.97;4444759;32;33642;-83
2022/10/19 10:07:17;;;;;;;5.97;2.80;;;;;;;18.19;64.71;100432.19;4437362;32;34617;-80
2022/10/19 10:10:19;;;;;;;2.65;1.67;;;;;;;17.82;62.24;100424.91;4444315;32;34183;-82
2022/10/19 10:13:16;;;;;;;3.47;2.20;;;;;;;17.88;62.13;100421.56;4445781;32;36597;-83
2022/10/19 10:16:07;;;;;;;6.40;3.00;;;;;;;18.63;59.34;100415.00;4444747;32;33410;-82
2022/10/19 10:18:57;;;;;;;4.00;2.50;;;;;;;18.86;57.66;100420.94;4442908;32;33826;-81
2022/10/19 10:21:46;;;;;;;4.68;2.50;;;;;;;19.39;56.03;100416.22;4440472;32;33571;-81
2022/10/19 10:24:33;;;;;;;4.53;2.30;;;;;;;19.19;55.09;100408.88;4450804;32;34707;-81
2022/10/19 10:27:32;;;;;;;3.25;1.50;;;;;;;19.81;51.86;100415.06;4448125;32;33385;-81
2022/10/19 10:30:20;;;;;;;2.00;1.40;;;;;;;18.77;56.90;100409.94;4436775;32;33692;-82
2022/10/19 10:33:15;;;;;;;2.53;1.37;;;;;;;18.60;56.11;100405.41;4446970;32;34887;-82
2022/10/19 10:36:29;;;;;;;3.35;1.40;;;;;;;18.44;55.38;100398.91;4448872;32;34575;-78
2022/10/19 10:39:16;;;;;;;2.00;1.35;;;;;;;18.42;56.12;100390.16;4450763;32;34119;-81
2022/10/19 10:42:10;;;;;;;4.05;2.37;;;;;;;18.77;59.03;100389.72;4440451;32;33776;-81
2022/10/19 10:45:00;;;;;;;3.60;1.95;;;;;;;19.27;58.35;100394.84;4444173;32;34063;-81
2022/10/19 10:47:51;;;;;;;2.65;1.67;;;;;;;19.07;57.99;100379.16;4450533;32;34559;-85
2022/10/19 10:50:39;;;;;;;4.43;2.10;;;;;;;19.33;55.43;100387.09;4432858;32;34128;-81
2022/10/19 10:53:34;;;;;;;2.87;1.80;;;;;;;18.94;56.46;100380.34;4448878;32;34403;-82
2022/10/19 10:56:27;;;;;;;3.03;1.98;;;;;;;18.73;57.32;100389.56;4446978;32;34125;-82
2022/10/19 10:59:19;;;;;;;5.55;2.00;;;;;;;18.60;54.68;100382.41;4438442;32;34892;-81
2022/10/19 11:02:41;;;;;;;2.45;1.33;;;;;;;19.08;54.40;100369.66;4438086;32;33549;-82
2022/10/19 11:05:31;;;;;;;2.80;1.23;;;;;;;18.99;47.53;100371.78;4428892;32;33809;-81
2022/10/19 11:09:03;;;;;;;4.03;1.30;;;;;;;19.36;48.35;100369.69;4442393;32;34027;-82
2022/10/19 11:11:56;;;;;;;1.83;1.12;;;;;;;18.79;49.21;100356.88;4414922;32;34727;-82
2022/10/19 11:14:47;;;;;;;2.50;1.60;;;;;;;18.52;51.27;100347.25;4438692;32;32762;-83
2022/10/19 11:17:38;;;;;;;5.43;1.48;;;;;;;18.75;51.95;100355.94;4427681;32;33297;-81
2022/10/19 11:20:33;;;;;;;3.60;1.40;;;;;;;18.72;52.15;100353.81;4410756;32;32992;-81
2022/10/19 11:23:44;;;;;;;2.60;1.57;;;;;;;19.07;50.99;100352.19;4426930;32;32645;-82
2022/10/19 11:26:41;;;;;;;3.85;1.30;;;;;;;19.15;50.76;100347.62;4426625;32;34199;-85
2022/10/19 11:30:07;;;;;;;5.10;1.60;;;;;;;18.65;52.94;100351.66;4419421;32;33461;-85
2022/10/19 11:33:06;;;;;;;3.00;1.60;;;;;;;18.08;54.59;100350.56;4423126;32;35003;-83
2022/10/19 11:35:57;;;;;;;3.35;1.50;;;;;;;18.30;55.03;100342.97;4423697;32;33791;-86
2022/10/19 11:39:09;;;;;;;2.90;1.60;;;;;;;18.86;55.49;100346.78;4413236;32;33224;-85
2022/10/19 11:42:33;;;;;;;2.95;1.55;;;;;;;18.27;57.48;100350.03;4421075;32;33930;-86
2022/10/19 11:45:48;;;;;;;2.60;1.45;;;;;;;18.60;58.62;100332.44;4409869;32;33989;-84
2022/10/19 11:48:40;;;;;;;3.75;1.50;;;;;;;18.35;56.71;100337.19;4417443;32;33654;-83
2022/10/19 11:54:39;;;;;;;2.25;1.23;;;;;;;18.13;56.23;100344.81;4419201;32;34544;-86
2022/10/19 11:57:33;;;;;;;3.85;1.12;;;;;;;18.16;57.22;100329.44;4423183;32;34755;-82
2022/10/19 12:00:20;;;;;;;4.93;1.05;;;;;;;18.54;55.72;100334.66;4422019;32;35222;-87
2022/10/19 12:03:27;;;;;;;;;;;;;;;18.24;55.32;100311.87;4423158;32;34374;-85
2022/10/19 12:06:21;;;;;;;;;;;;;;;17.81;55.67;100321.50;4422946;32;34406;-85
2022/10/19 12:09:18;;;;;;;;;;;;;;;17.84;57.79;100318.06;4409643;32;32840;-84
2022/10/19 12:12:08;;;;;;;;;;;;;;;18.12;57.01;100326.53;4420824;32;35667;-83
2022/10/19 12:14:59;;;;;;;;;;;;;;;17.90;55.82;100319.47;4438085;32;35972;-85
2022/10/19 12:17:53;;;;;;;;;;;;;;;18.16;56.32;100335.81;4427915;32;34662;-86
2022/10/19 12:20:45;;;;;;;;;;;;;;;18.55;55.97;100327.12;4431410;32;35559;-86
2022/10/19 12:23:33;;;;;;;;;;;;;;;17.78;56.69;100327.75;4436036;32;34919;-85
2022/10/19 12:26:22;;;;;;;;;;;;;;;17.73;56.07;100327.94;4438844;32;33836;-84
2022/10/19 12:29:16;;;;;;;;;;;;;;;17.45;56.89;100317.47;4438113;32;34444;-87
2022/10/19 12:32:04;;;;;;;;;;;;;;;17.29;59.85;100324.78;4446256;32;35281;-86
2022/10/19 12:35:05;;;;;;;;;;;;;;;17.51;60.08;100315.28;4439360;32;34045;-87
2022/10/19 12:38:02;;;;;;;;;;;;;;;17.60;60.39;100312.44;4439669;32;34059;-84
2022/10/19 12:40:54;;;;;;;;;;;;;;;17.62;58.70;100313.72;4437738;32;34641;-86
2022/10/19 12:43:51;;;;;;;;;;;;;;;18.12;60.25;100315.44;4439046;32;36071;-86
2022/10/19 12:46:40;;;;;;;;;;;;;;;18.32;55.74;100299.84;4438110;32;34531;-85
2022/10/19 12:49:33;;;;;;;;;;;;;;;18.18;55.40;100310.47;4436323;32;33706;-84
2022/10/19 12:52:38;;;;;;;;;;;;;;;17.94;52.12;100306.53;4447859;32;34643;-84
2022/10/19 12:55:33;;;;;;;;;;;;;;;18.13;50.09;100302.38;4448769;32;36245;-84
2022/10/19 12:58:26;;;;;;;;;;;;;;;18.49;50.94;100292.44;4430534;32;35213;-84
2022/10/19 13:01:26;;;;;;;;;;;;;;;18.50;50.20;100294.06;4436560;32;34942;-85
2022/10/19 13:04:14;;;;;;;;;;;;;;;18.37;49.04;100291.31;4431365;32;35730;-85
2022/10/19 13:07:03;;;;;;;;;;;;;;;18.70;49.69;100290.34;4429467;32;35218;-85
2022/10/19 13:10:03;;;;;;;;;;;;;;;17.86;49.92;100293.59;4440993;32;33183;-84
2022/10/19 13:12:53;;;;;;;;;;;;;;;18.75;47.19;100290.12;4449094;32;33779;-84
2022/10/19 13:15:41;;;;;;;;;;;;;;;18.67;46.89;100288.28;4442021;32;35311;-84
2022/10/19 13:18:50;;;;;;;;;;;;;;;18.03;50.05;100291.75;4448106;32;36161;-84
2022/10/19 13:21:48;;;;;;;;;;;;;;;17.77;51.57;100309.47;4449229;32;34972;-83
2022/10/19 13:24:36;;;;;;;;;;;;;;;18.29;49.68;100278.34;4439914;32;33480;-85
2022/10/19 13:27:25;;;;;;;;;;;;;;;18.59;46.06;100287.25;4440265;32;36129;-84
2022/10/19 13:30:31;;;;;;;;;;;;;;;19.00;44.79;100292.84;4431923;32;33623;-85